sensor_id;sensor_type;location;lat;lon;timestamp;temperature;humidity
60242;SHT30;46103;52.076;113.488;2023-05-29T00:01:50;11.43;55.18
60242;SHT30;46103;52.076;113.488;2023-05-29T00:04:56;11.58;54.71
60242;SHT30;46103;52.076;113.488;2023-05-29T00:08:01;11.76;54.01
60242;SHT30;46103;52.076;113.488;2023-05-29T00:11:14;11.91;53.54
60242;SHT30;46103;52.076;113.488;2023-05-29T00:14:23;12.06;53.10
60242;SHT30;46103;52.076;113.488;2023-05-29T00:17:33;12.23;52.81
60242;SHT30;46103;52.076;113.488;2023-05-29T00:20:43;12.44;52.30
60242;SHT30;46103;52.076;113.488;2023-05-29T00:23:52;12.49;51.53
60242;SHT30;46103;52.076;113.488;2023-05-29T00:26:58;12.54;51.45
60242;SHT30;46103;52.076;113.488;2023-05-29T00:30:06;12.79;50.94
60242;SHT30;46103;52.076;113.488;2023-05-29T00:33:11;12.81;50.93
60242;SHT30;46103;52.076;113.488;2023-05-29T00:36:18;12.85;50.71
60242;SHT30;46103;52.076;113.488;2023-05-29T00:39:26;12.93;50.18
60242;SHT30;46103;52.076;113.488;2023-05-29T00:42:33;13.03;50.21
60242;SHT30;46103;52.076;113.488;2023-05-29T00:45:40;13.28;49.56
60242;SHT30;46103;52.076;113.488;2023-05-29T00:48:48;13.41;49.17
60242;SHT30;46103;52.076;113.488;2023-05-29T00:51:55;13.53;48.34
60242;SHT30;46103;52.076;113.488;2023-05-29T00:55:02;13.74;47.75
60242;SHT30;46103;52.076;113.488;2023-05-29T00:58:08;13.86;47.59
60242;SHT30;46103;52.076;113.488;2023-05-29T01:01:17;14.06;47.20
60242;SHT30;46103;52.076;113.488;2023-05-29T01:04:26;14.06;46.09
60242;SHT30;46103;52.076;113.488;2023-05-29T01:07:33;14.05;46.55
60242;SHT30;46103;52.076;113.488;2023-05-29T01:10:39;14.36;46.20
60242;SHT30;46103;52.076;113.488;2023-05-29T01:13:49;14.52;45.39
60242;SHT30;46103;52.076;113.488;2023-05-29T01:17:17;14.67;45.34
60242;SHT30;46103;52.076;113.488;2023-05-29T01:20:42;14.82;45.15
60242;SHT30;46103;52.076;113.488;2023-05-29T01:27:14;14.88;43.86
60242;SHT30;46103;52.076;113.488;2023-05-29T01:30:22;15.18;43.38
60242;SHT30;46103;52.076;113.488;2023-05-29T01:33:27;15.37;43.10
60242;SHT30;46103;52.076;113.488;2023-05-29T01:36:33;15.57;42.32
60242;SHT30;46103;52.076;113.488;2023-05-29T01:39:37;15.50;41.08
60242;SHT30;46103;52.076;113.488;2023-05-29T01:42:40;15.54;41.70
60242;SHT30;46103;52.076;113.488;2023-05-29T01:45:44;15.70;40.87
60242;SHT30;46103;52.076;113.488;2023-05-29T01:48:48;15.92;39.36
60242;SHT30;46103;52.076;113.488;2023-05-29T01:51:51;15.78;39.72
60242;SHT30;46103;52.076;113.488;2023-05-29T01:54:55;15.67;39.62
60242;SHT30;46103;52.076;113.488;2023-05-29T01:57:58;15.75;39.59
60242;SHT30;46103;52.076;113.488;2023-05-29T02:01:03;15.95;38.21
60242;SHT30;46103;52.076;113.488;2023-05-29T02:04:07;15.99;38.70
60242;SHT30;46103;52.076;113.488;2023-05-29T02:07:11;16.16;38.16
60242;SHT30;46103;52.076;113.488;2023-05-29T02:10:15;16.37;37.69
60242;SHT30;46103;52.076;113.488;2023-05-29T02:13:19;16.66;37.40
60242;SHT30;46103;52.076;113.488;2023-05-29T02:16:23;16.84;34.61
60242;SHT30;46103;52.076;113.488;2023-05-29T02:19:27;16.78;34.94
60242;SHT30;46103;52.076;113.488;2023-05-29T02:22:30;16.98;34.91
60242;SHT30;46103;52.076;113.488;2023-05-29T02:25:35;16.95;35.33
60242;SHT30;46103;52.076;113.488;2023-05-29T02:28:39;17.11;34.69
60242;SHT30;46103;52.076;113.488;2023-05-29T02:31:43;17.31;34.68
60242;SHT30;46103;52.076;113.488;2023-05-29T02:34:47;17.42;34.52
60242;SHT30;46103;52.076;113.488;2023-05-29T02:37:50;17.54;34.49
60242;SHT30;46103;52.076;113.488;2023-05-29T02:40:54;17.78;34.21
60242;SHT30;46103;52.076;113.488;2023-05-29T02:44:00;17.90;32.41
60242;SHT30;46103;52.076;113.488;2023-05-29T02:47:03;18.07;31.05
60242;SHT30;46103;52.076;113.488;2023-05-29T02:50:08;17.87;29.05
60242;SHT30;46103;52.076;113.488;2023-05-29T02:53:12;17.81;30.45
60242;SHT30;46103;52.076;113.488;2023-05-29T02:56:15;17.59;30.76
60242;SHT30;46103;52.076;113.488;2023-05-29T02:59:19;17.47;27.57
60242;SHT30;46103;52.076;113.488;2023-05-29T03:02:23;17.45;28.36
60242;SHT30;46103;52.076;113.488;2023-05-29T03:05:27;17.51;28.04
60242;SHT30;46103;52.076;113.488;2023-05-29T03:08:31;17.57;27.47
60242;SHT30;46103;52.076;113.488;2023-05-29T03:11:37;17.67;27.60
60242;SHT30;46103;52.076;113.488;2023-05-29T03:14:40;17.54;27.86
60242;SHT30;46103;52.076;113.488;2023-05-29T03:17:47;18.01;27.37
60242;SHT30;46103;52.076;113.488;2023-05-29T03:20:55;18.11;27.42
60242;SHT30;46103;52.076;113.488;2023-05-29T03:23:59;18.26;26.81
60242;SHT30;46103;52.076;113.488;2023-05-29T03:27:04;18.45;27.05
60242;SHT30;46103;52.076;113.488;2023-05-29T03:30:09;18.42;26.68
60242;SHT30;46103;52.076;113.488;2023-05-29T03:33:13;18.31;27.29
60242;SHT30;46103;52.076;113.488;2023-05-29T03:36:38;18.35;27.12
60242;SHT30;46103;52.076;113.488;2023-05-29T03:39:42;18.25;27.42
60242;SHT30;46103;52.076;113.488;2023-05-29T03:42:48;18.55;26.02
60242;SHT30;46103;52.076;113.488;2023-05-29T03:45:52;18.51;26.40
60242;SHT30;46103;52.076;113.488;2023-05-29T03:48:55;18.73;25.72
60242;SHT30;46103;52.076;113.488;2023-05-29T03:51:59;18.77;25.72
60242;SHT30;46103;52.076;113.488;2023-05-29T03:55:08;18.83;26.08
60242;SHT30;46103;52.076;113.488;2023-05-29T03:58:13;18.99;25.86
60242;SHT30;46103;52.076;113.488;2023-05-29T04:01:16;18.73;26.21
60242;SHT30;46103;52.076;113.488;2023-05-29T04:04:21;18.48;26.32
60242;SHT30;46103;52.076;113.488;2023-05-29T04:07:25;18.36;26.42
60242;SHT30;46103;52.076;113.488;2023-05-29T04:10:30;18.42;26.37
60242;SHT30;46103;52.076;113.488;2023-05-29T04:13:38;18.74;25.90
60242;SHT30;46103;52.076;113.488;2023-05-29T04:16:41;18.77;25.79
60242;SHT30;46103;52.076;113.488;2023-05-29T04:19:46;18.79;25.79
60242;SHT30;46103;52.076;113.488;2023-05-29T04:22:51;18.67;25.91
60242;SHT30;46103;52.076;113.488;2023-05-29T04:25:58;18.64;25.86
60242;SHT30;46103;52.076;113.488;2023-05-29T04:29:06;18.84;25.47
60242;SHT30;46103;52.076;113.488;2023-05-29T04:32:11;18.90;25.60
60242;SHT30;46103;52.076;113.488;2023-05-29T04:35:15;18.73;25.80
60242;SHT30;46103;52.076;113.488;2023-05-29T04:38:28;18.60;25.65
60242;SHT30;46103;52.076;113.488;2023-05-29T04:41:33;18.86;25.96
60242;SHT30;46103;52.076;113.488;2023-05-29T04:44:39;19.22;24.89
60242;SHT30;46103;52.076;113.488;2023-05-29T04:47:46;19.45;24.71
60242;SHT30;46103;52.076;113.488;2023-05-29T04:50:59;19.10;25.18
60242;SHT30;46103;52.076;113.488;2023-05-29T04:54:12;19.14;25.31
60242;SHT30;46103;52.076;113.488;2023-05-29T04:57:16;19.46;25.16
60242;SHT30;46103;52.076;113.488;2023-05-29T05:00:22;19.56;25.01
60242;SHT30;46103;52.076;113.488;2023-05-29T05:03:26;19.42;24.09
60242;SHT30;46103;52.076;113.488;2023-05-29T05:06:30;19.62;24.41
60242;SHT30;46103;52.076;113.488;2023-05-29T05:09:34;19.66;24.51
60242;SHT30;46103;52.076;113.488;2023-05-29T05:12:38;19.83;24.25
60242;SHT30;46103;52.076;113.488;2023-05-29T05:15:41;19.76;24.59
60242;SHT30;46103;52.076;113.488;2023-05-29T05:18:45;19.89;24.56
60242;SHT30;46103;52.076;113.488;2023-05-29T05:21:48;19.72;23.92
60242;SHT30;46103;52.076;113.488;2023-05-29T05:24:56;19.76;24.14
60242;SHT30;46103;52.076;113.488;2023-05-29T05:28:02;19.86;23.74
60242;SHT30;46103;52.076;113.488;2023-05-29T05:31:09;19.83;24.32
60242;SHT30;46103;52.076;113.488;2023-05-29T05:34:14;20.01;24.02
60242;SHT30;46103;52.076;113.488;2023-05-29T05:37:18;20.32;23.81
60242;SHT30;46103;52.076;113.488;2023-05-29T05:40:22;20.62;23.34
60242;SHT30;46103;52.076;113.488;2023-05-29T05:43:32;20.35;23.41
60242;SHT30;46103;52.076;113.488;2023-05-29T05:46:53;20.37;23.49
60242;SHT30;46103;52.076;113.488;2023-05-29T05:49:58;20.64;22.19
60242;SHT30;46103;52.076;113.488;2023-05-29T05:53:03;20.56;21.96
60242;SHT30;46103;52.076;113.488;2023-05-29T05:56:07;20.69;21.78
60242;SHT30;46103;52.076;113.488;2023-05-29T05:59:11;20.87;21.73
60242;SHT30;46103;52.076;113.488;2023-05-29T06:02:16;20.92;21.99
60242;SHT30;46103;52.076;113.488;2023-05-29T06:05:20;21.07;20.93
60242;SHT30;46103;52.076;113.488;2023-05-29T06:08:23;21.20;20.95
60242;SHT30;46103;52.076;113.488;2023-05-29T06:11:27;21.19;20.92
60242;SHT30;46103;52.076;113.488;2023-05-29T06:14:31;20.95;21.02
60242;SHT30;46103;52.076;113.488;2023-05-29T06:17:34;21.35;20.72
60242;SHT30;46103;52.076;113.488;2023-05-29T06:20:38;21.71;20.01
60242;SHT30;46103;52.076;113.488;2023-05-29T06:23:43;21.83;20.24
60242;SHT30;46103;52.076;113.488;2023-05-29T06:26:46;21.90;20.48
60242;SHT30;46103;52.076;113.488;2023-05-29T06:29:50;22.19;20.28
60242;SHT30;46103;52.076;113.488;2023-05-29T06:32:54;22.95;19.76
60242;SHT30;46103;52.076;113.488;2023-05-29T06:36:04;23.29;19.02
60242;SHT30;46103;52.076;113.488;2023-05-29T06:39:16;23.77;18.50
60242;SHT30;46103;52.076;113.488;2023-05-29T06:42:21;24.14;18.58
60242;SHT30;46103;52.076;113.488;2023-05-29T06:45:32;24.52;17.64
60242;SHT30;46103;52.076;113.488;2023-05-29T06:48:35;25.08;17.26
60242;SHT30;46103;52.076;113.488;2023-05-29T06:51:39;25.45;17.14
60242;SHT30;46103;52.076;113.488;2023-05-29T06:55:11;25.53;17.23
60242;SHT30;46103;52.076;113.488;2023-05-29T06:58:14;25.46;17.53
60242;SHT30;46103;52.076;113.488;2023-05-29T07:05:02;27.10;16.31
60242;SHT30;46103;52.076;113.488;2023-05-29T07:08:06;26.82;16.00
60242;SHT30;46103;52.076;113.488;2023-05-29T07:11:10;26.46;16.38
60242;SHT30;46103;52.076;113.488;2023-05-29T07:14:14;27.20;15.95
60242;SHT30;46103;52.076;113.488;2023-05-29T07:17:17;27.69;15.86
60242;SHT30;46103;52.076;113.488;2023-05-29T07:20:26;28.03;15.37
60242;SHT30;46103;52.076;113.488;2023-05-29T07:23:29;27.96;15.72
60242;SHT30;46103;52.076;113.488;2023-05-29T07:26:33;27.86;15.36
60242;SHT30;46103;52.076;113.488;2023-05-29T07:29:37;27.82;14.75
60242;SHT30;46103;52.076;113.488;2023-05-29T07:32:41;28.32;14.39
60242;SHT30;46103;52.076;113.488;2023-05-29T07:35:45;29.10;14.34
60242;SHT30;46103;52.076;113.488;2023-05-29T07:38:49;28.34;14.68
60242;SHT30;46103;52.076;113.488;2023-05-29T07:41:54;26.99;15.39
60242;SHT30;46103;52.076;113.488;2023-05-29T07:44:58;26.42;15.99
60242;SHT30;46103;52.076;113.488;2023-05-29T07:48:02;26.94;15.19
60242;SHT30;46103;52.076;113.488;2023-05-29T07:51:07;27.65;15.43
60242;SHT30;46103;52.076;113.488;2023-05-29T07:54:17;29.05;14.44
60242;SHT30;46103;52.076;113.488;2023-05-29T07:57:24;30.01;13.81
60242;SHT30;46103;52.076;113.488;2023-05-29T08:00:30;31.25;13.18
60242;SHT30;46103;52.076;113.488;2023-05-29T08:03:37;31.18;13.35
60242;SHT30;46103;52.076;113.488;2023-05-29T08:07:03;29.80;14.31
60242;SHT30;46103;52.076;113.488;2023-05-29T08:10:07;29.80;14.23
60242;SHT30;46103;52.076;113.488;2023-05-29T08:13:11;28.82;14.79
60242;SHT30;46103;52.076;113.488;2023-05-29T08:16:17;29.98;14.14
60242;SHT30;46103;52.076;113.488;2023-05-29T08:19:21;29.30;14.13
60242;SHT30;46103;52.076;113.488;2023-05-29T08:22:29;29.26;14.21
60242;SHT30;46103;52.076;113.488;2023-05-29T08:25:34;29.36;14.19
60242;SHT30;46103;52.076;113.488;2023-05-29T08:28:38;29.30;14.24
60242;SHT30;46103;52.076;113.488;2023-05-29T08:31:43;29.95;14.25
60242;SHT30;46103;52.076;113.488;2023-05-29T08:34:48;30.70;14.09
60242;SHT30;46103;52.076;113.488;2023-05-29T08:37:54;30.25;14.44
60242;SHT30;46103;52.076;113.488;2023-05-29T08:40:59;30.91;13.99
60242;SHT30;46103;52.076;113.488;2023-05-29T08:44:04;31.93;13.22
60242;SHT30;46103;52.076;113.488;2023-05-29T08:47:10;31.56;13.31
60242;SHT30;46103;52.076;113.488;2023-05-29T08:50:20;29.68;14.30
60242;SHT30;46103;52.076;113.488;2023-05-29T08:53:25;27.70;15.36
60242;SHT30;46103;52.076;113.488;2023-05-29T08:56:29;29.12;14.71
60242;SHT30;46103;52.076;113.488;2023-05-29T08:59:37;30.73;13.77
60242;SHT30;46103;52.076;113.488;2023-05-29T09:02:43;32.06;13.20
60242;SHT30;46103;52.076;113.488;2023-05-29T09:05:48;33.23;12.63
60242;SHT30;46103;52.076;113.488;2023-05-29T09:08:52;34.13;11.85
60242;SHT30;46103;52.076;113.488;2023-05-29T09:11:57;32.18;12.22
60242;SHT30;46103;52.076;113.488;2023-05-29T09:15:02;32.06;12.19
60242;SHT30;46103;52.076;113.488;2023-05-29T09:18:06;32.29;12.10
60242;SHT30;46103;52.076;113.488;2023-05-29T09:21:25;33.07;11.85
60242;SHT30;46103;52.076;113.488;2023-05-29T09:24:30;34.02;11.80
60242;SHT30;46103;52.076;113.488;2023-05-29T09:27:39;34.37;11.27
60242;SHT30;46103;52.076;113.488;2023-05-29T09:30:45;34.24;11.18
60242;SHT30;46103;52.076;113.488;2023-05-29T09:33:53;34.63;10.93
60242;SHT30;46103;52.076;113.488;2023-05-29T09:37:01;33.69;11.29
60242;SHT30;46103;52.076;113.488;2023-05-29T09:40:11;34.88;11.06
60242;SHT30;46103;52.076;113.488;2023-05-29T09:43:16;34.08;11.24
60242;SHT30;46103;52.076;113.488;2023-05-29T09:46:20;33.08;11.57
60242;SHT30;46103;52.076;113.488;2023-05-29T09:49:25;33.40;11.33
60242;SHT30;46103;52.076;113.488;2023-05-29T09:52:31;33.41;11.39
60242;SHT30;46103;52.076;113.488;2023-05-29T09:55:35;33.98;11.43
60242;SHT30;46103;52.076;113.488;2023-05-29T09:58:41;33.98;11.14
60242;SHT30;46103;52.076;113.488;2023-05-29T10:02:04;34.35;10.94
60242;SHT30;46103;52.076;113.488;2023-05-29T10:05:11;34.41;10.95
60242;SHT30;46103;52.076;113.488;2023-05-29T10:08:20;34.82;11.05
60242;SHT30;46103;52.076;113.488;2023-05-29T10:11:24;35.35;10.58
60242;SHT30;46103;52.076;113.488;2023-05-29T10:14:31;35.35;10.71
60242;SHT30;46103;52.076;113.488;2023-05-29T10:17:36;35.63;10.59
60242;SHT30;46103;52.076;113.488;2023-05-29T10:20:44;34.70;11.12
60242;SHT30;46103;52.076;113.488;2023-05-29T10:23:50;34.35;11.25
60242;SHT30;46103;52.076;113.488;2023-05-29T10:26:55;34.23;11.29
60242;SHT30;46103;52.076;113.488;2023-05-29T10:33:52;33.86;11.50
60242;SHT30;46103;52.076;113.488;2023-05-29T10:37:15;33.88;11.53
60242;SHT30;46103;52.076;113.488;2023-05-29T10:40:24;34.09;11.38
60242;SHT30;46103;52.076;113.488;2023-05-29T10:43:32;33.59;11.62
60242;SHT30;46103;52.076;113.488;2023-05-29T10:49:51;32.79;11.96
60242;SHT30;46103;52.076;113.488;2023-05-29T10:52:55;33.35;11.90
60242;SHT30;46103;52.076;113.488;2023-05-29T10:56:00;33.30;12.03
60242;SHT30;46103;52.076;113.488;2023-05-29T10:59:08;33.30;12.00
60242;SHT30;46103;52.076;113.488;2023-05-29T11:02:17;33.59;11.79
60242;SHT30;46103;52.076;113.488;2023-05-29T11:05:23;33.17;11.85
60242;SHT30;46103;52.076;113.488;2023-05-29T11:08:52;33.38;11.83
60242;SHT30;46103;52.076;113.488;2023-05-29T11:12:23;32.86;12.23
60242;SHT30;46103;52.076;113.488;2023-05-29T11:15:36;32.65;12.35
60242;SHT30;46103;52.076;113.488;2023-05-29T11:18:43;32.07;12.69
60242;SHT30;46103;52.076;113.488;2023-05-29T11:22:09;32.55;12.53
60242;SHT30;46103;52.076;113.488;2023-05-29T11:25:15;32.87;12.37
60242;SHT30;46103;52.076;113.488;2023-05-29T11:28:19;32.58;12.52
60242;SHT30;46103;52.076;113.488;2023-05-29T11:31:24;32.49;12.52
60242;SHT30;46103;52.076;113.488;2023-05-29T11:34:33;32.28;12.60
60242;SHT30;46103;52.076;113.488;2023-05-29T11:37:38;32.13;12.86
60242;SHT30;46103;52.076;113.488;2023-05-29T11:40:43;31.73;13.02
60242;SHT30;46103;52.076;113.488;2023-05-29T11:44:00;32.20;12.83
60242;SHT30;46103;52.076;113.488;2023-05-29T11:47:08;32.07;12.95
60242;SHT30;46103;52.076;113.488;2023-05-29T11:50:20;31.69;13.12
60242;SHT30;46103;52.076;113.488;2023-05-29T11:53:26;30.90;13.56
60242;SHT30;46103;52.076;113.488;2023-05-29T11:56:34;29.93;14.20
60242;SHT30;46103;52.076;113.488;2023-05-29T11:59:38;29.47;14.52
60242;SHT30;46103;52.076;113.488;2023-05-29T12:02:46;29.03;14.68
60242;SHT30;46103;52.076;113.488;2023-05-29T12:05:51;28.61;14.97
60242;SHT30;46103;52.076;113.488;2023-05-29T12:09:00;27.89;15.32
60242;SHT30;46103;52.076;113.488;2023-05-29T12:12:06;27.15;15.67
60242;SHT30;46103;52.076;113.488;2023-05-29T12:15:20;26.56;16.03
60242;SHT30;46103;52.076;113.488;2023-05-29T12:18:46;25.39;16.80
60242;SHT30;46103;52.076;113.488;2023-05-29T12:22:07;24.00;17.57
60242;SHT30;46103;52.076;113.488;2023-05-29T12:25:17;22.98;18.58
60242;SHT30;46103;52.076;113.488;2023-05-29T12:28:43;22.20;19.31
60242;SHT30;46103;52.076;113.488;2023-05-29T12:31:58;21.61;19.87
60242;SHT30;46103;52.076;113.488;2023-05-29T12:35:15;21.35;20.12
60242;SHT30;46103;52.076;113.488;2023-05-29T12:38:22;21.06;20.44
60242;SHT30;46103;52.076;113.488;2023-05-29T12:41:34;20.71;20.65
60242;SHT30;46103;52.076;113.488;2023-05-29T12:44:52;20.44;21.06
60242;SHT30;46103;52.076;113.488;2023-05-29T12:48:05;20.31;21.40
60242;SHT30;46103;52.076;113.488;2023-05-29T12:51:30;20.11;21.82
60242;SHT30;46103;52.076;113.488;2023-05-29T12:54:53;19.93;22.08
60242;SHT30;46103;52.076;113.488;2023-05-29T12:58:02;19.66;22.81
60242;SHT30;46103;52.076;113.488;2023-05-29T13:01:13;19.56;22.92
60242;SHT30;46103;52.076;113.488;2023-05-29T13:04:31;19.41;23.33
60242;SHT30;46103;52.076;113.488;2023-05-29T13:07:49;19.11;22.93
60242;SHT30;46103;52.076;113.488;2023-05-29T13:10:59;18.79;23.51
60242;SHT30;46103;52.076;113.488;2023-05-29T13:14:05;18.52;24.21
60242;SHT30;46103;52.076;113.488;2023-05-29T13:17:12;18.28;24.95
60242;SHT30;46103;52.076;113.488;2023-05-29T13:20:17;18.07;25.10
60242;SHT30;46103;52.076;113.488;2023-05-29T13:23:21;17.88;25.53
60242;SHT30;46103;52.076;113.488;2023-05-29T13:26:28;17.76;25.64
60242;SHT30;46103;52.076;113.488;2023-05-29T13:29:32;17.67;25.80
60242;SHT30;46103;52.076;113.488;2023-05-29T13:32:36;17.56;26.13
60242;SHT30;46103;52.076;113.488;2023-05-29T13:35:41;17.42;26.07
60242;SHT30;46103;52.076;113.488;2023-05-29T13:38:55;17.32;26.27
60242;SHT30;46103;52.076;113.488;2023-05-29T13:42:04;17.21;27.22
60242;SHT30;46103;52.076;113.488;2023-05-29T13:49:46;17.12;29.27
60242;SHT30;46103;52.076;113.488;2023-05-29T13:52:53;17.10;29.24
60242;SHT30;46103;52.076;113.488;2023-05-29T13:55:58;17.00;29.19
60242;SHT30;46103;52.076;113.488;2023-05-29T13:59:16;16.94;29.17
60242;SHT30;46103;52.076;113.488;2023-05-29T14:02:34;16.74;29.59
60242;SHT30;46103;52.076;113.488;2023-05-29T14:06:10;16.55;30.33
60242;SHT30;46103;52.076;113.488;2023-05-29T14:09:15;16.42;30.74
60242;SHT30;46103;52.076;113.488;2023-05-29T14:12:24;16.28;31.48
60242;SHT30;46103;52.076;113.488;2023-05-29T14:15:44;16.10;32.02
60242;SHT30;46103;52.076;113.488;2023-05-29T14:19:03;15.97;32.78
60242;SHT30;46103;52.076;113.488;2023-05-29T14:22:07;15.78;32.67
60242;SHT30;46103;52.076;113.488;2023-05-29T14:25:33;15.61;33.15
60242;SHT30;46103;52.076;113.488;2023-05-29T14:32:42;15.39;34.54
60242;SHT30;46103;52.076;113.488;2023-05-29T14:37:23;15.23;34.48
60242;SHT30;46103;52.076;113.488;2023-05-29T14:41:37;15.06;33.99
60242;SHT30;46103;52.076;113.488;2023-05-29T14:46:14;14.96;33.18
60242;SHT30;46103;52.076;113.488;2023-05-29T14:50:39;14.92;33.35
60242;SHT30;46103;52.076;113.488;2023-05-29T14:55:16;14.79;33.24
60242;SHT30;46103;52.076;113.488;2023-05-29T14:59:45;14.64;33.29
60242;SHT30;46103;52.076;113.488;2023-05-29T15:03:09;14.56;33.20
60242;SHT30;46103;52.076;113.488;2023-05-29T15:07:08;14.45;33.22
60242;SHT30;46103;52.076;113.488;2023-05-29T15:10:19;14.38;33.51
60242;SHT30;46103;52.076;113.488;2023-05-29T15:14:37;14.29;33.81
60242;SHT30;46103;52.076;113.488;2023-05-29T15:19:23;14.19;33.88
60242;SHT30;46103;52.076;113.488;2023-05-29T15:22:55;14.10;33.96
60242;SHT30;46103;52.076;113.488;2023-05-29T15:25:59;14.02;33.97
60242;SHT30;46103;52.076;113.488;2023-05-29T15:29:04;13.98;34.09
60242;SHT30;46103;52.076;113.488;2023-05-29T15:32:08;13.93;34.31
60242;SHT30;46103;52.076;113.488;2023-05-29T15:35:14;13.82;34.52
60242;SHT30;46103;52.076;113.488;2023-05-29T15:38:20;13.76;34.69
60242;SHT30;46103;52.076;113.488;2023-05-29T15:41:26;13.68;35.00
60242;SHT30;46103;52.076;113.488;2023-05-29T15:44:34;13.58;35.19
60242;SHT30;46103;52.076;113.488;2023-05-29T15:47:41;13.53;35.35
60242;SHT30;46103;52.076;113.488;2023-05-29T15:50:47;13.44;35.47
60242;SHT30;46103;52.076;113.488;2023-05-29T15:53:53;13.36;35.34
60242;SHT30;46103;52.076;113.488;2023-05-29T15:56:58;13.16;36.64
60242;SHT30;46103;52.076;113.488;2023-05-29T16:00:08;13.00;36.69
60242;SHT30;46103;52.076;113.488;2023-05-29T16:03:15;12.86;36.90
60242;SHT30;46103;52.076;113.488;2023-05-29T16:06:20;12.71;37.39
60242;SHT30;46103;52.076;113.488;2023-05-29T16:09:24;12.52;37.82
60242;SHT30;46103;52.076;113.488;2023-05-29T16:12:29;12.35;38.15
60242;SHT30;46103;52.076;113.488;2023-05-29T16:15:35;12.23;38.60
60242;SHT30;46103;52.076;113.488;2023-05-29T16:18:41;12.13;38.51
60242;SHT30;46103;52.076;113.488;2023-05-29T16:21:47;12.06;38.85
60242;SHT30;46103;52.076;113.488;2023-05-29T16:24:52;11.96;38.88
60242;SHT30;46103;52.076;113.488;2023-05-29T16:27:57;11.94;39.18
60242;SHT30;46103;52.076;113.488;2023-05-29T16:31:03;11.94;38.19
60242;SHT30;46103;52.076;113.488;2023-05-29T16:34:09;11.85;38.54
60242;SHT30;46103;52.076;113.488;2023-05-29T16:37:15;11.76;40.07
60242;SHT30;46103;52.076;113.488;2023-05-29T16:40:20;11.61;40.27
60242;SHT30;46103;52.076;113.488;2023-05-29T16:43:28;11.48;40.15
60242;SHT30;46103;52.076;113.488;2023-05-29T16:46:33;11.28;41.63
60242;SHT30;46103;52.076;113.488;2023-05-29T16:49:40;11.15;41.90
60242;SHT30;46103;52.076;113.488;2023-05-29T16:52:46;11.04;41.80
60242;SHT30;46103;52.076;113.488;2023-05-29T16:55:52;10.92;42.69
60242;SHT30;46103;52.076;113.488;2023-05-29T16:58:57;10.72;42.49
60242;SHT30;46103;52.076;113.488;2023-05-29T17:02:04;10.62;42.57
60242;SHT30;46103;52.076;113.488;2023-05-29T17:05:10;10.44;42.59
60242;SHT30;46103;52.076;113.488;2023-05-29T17:08:15;10.31;43.24
60242;SHT30;46103;52.076;113.488;2023-05-29T17:11:21;10.22;43.49
60242;SHT30;46103;52.076;113.488;2023-05-29T17:14:26;10.15;43.41
60242;SHT30;46103;52.076;113.488;2023-05-29T17:17:31;10.10;43.32
60242;SHT30;46103;52.076;113.488;2023-05-29T17:20:36;10.05;43.79
60242;SHT30;46103;52.076;113.488;2023-05-29T17:23:42;10.07;43.62
60242;SHT30;46103;52.076;113.488;2023-05-29T17:26:47;9.98;43.85
60242;SHT30;46103;52.076;113.488;2023-05-29T17:29:53;9.98;43.56
60242;SHT30;46103;52.076;113.488;2023-05-29T17:32:58;10.02;43.46
60242;SHT30;46103;52.076;113.488;2023-05-29T17:36:08;10.01;43.21
60242;SHT30;46103;52.076;113.488;2023-05-29T17:39:14;10.07;42.95
60242;SHT30;46103;52.076;113.488;2023-05-29T17:42:21;10.02;43.08
60242;SHT30;46103;52.076;113.488;2023-05-29T17:45:26;10.07;42.78
60242;SHT30;46103;52.076;113.488;2023-05-29T17:48:31;10.12;42.61
60242;SHT30;46103;52.076;113.488;2023-05-29T17:51:36;10.10;42.40
60242;SHT30;46103;52.076;113.488;2023-05-29T17:54:44;9.97;42.45
60242;SHT30;46103;52.076;113.488;2023-05-29T17:57:49;9.84;42.96
60242;SHT30;46103;52.076;113.488;2023-05-29T18:00:55;9.73;43.22
60242;SHT30;46103;52.076;113.488;2023-05-29T18:04:01;9.56;44.55
60242;SHT30;46103;52.076;113.488;2023-05-29T18:07:08;9.45;44.52
60242;SHT30;46103;52.076;113.488;2023-05-29T18:10:16;9.29;45.30
60242;SHT30;46103;52.076;113.488;2023-05-29T18:13:25;9.19;45.41
60242;SHT30;46103;52.076;113.488;2023-05-29T18:16:36;9.03;46.07
60242;SHT30;46103;52.076;113.488;2023-05-29T18:19:43;8.97;46.25
60242;SHT30;46103;52.076;113.488;2023-05-29T18:22:48;8.96;46.14
60242;SHT30;46103;52.076;113.488;2023-05-29T18:25:54;8.92;46.09
60242;SHT30;46103;52.076;113.488;2023-05-29T18:28:59;8.91;45.80
60242;SHT30;46103;52.076;113.488;2023-05-29T18:32:08;8.83;46.04
60242;SHT30;46103;52.076;113.488;2023-05-29T18:35:14;8.80;46.29
60242;SHT30;46103;52.076;113.488;2023-05-29T18:38:20;8.81;46.30
60242;SHT30;46103;52.076;113.488;2023-05-29T18:41:25;8.78;46.33
60242;SHT30;46103;52.076;113.488;2023-05-29T18:44:31;8.78;46.69
60242;SHT30;46103;52.076;113.488;2023-05-29T18:47:37;8.73;47.11
60242;SHT30;46103;52.076;113.488;2023-05-29T18:50:43;8.70;47.38
60242;SHT30;46103;52.076;113.488;2023-05-29T18:53:48;8.71;47.55
60242;SHT30;46103;52.076;113.488;2023-05-29T18:56:55;8.69;47.65
60242;SHT30;46103;52.076;113.488;2023-05-29T19:00:01;8.67;47.71
60242;SHT30;46103;52.076;113.488;2023-05-29T19:03:10;8.61;47.86
60242;SHT30;46103;52.076;113.488;2023-05-29T19:06:17;8.53;48.35
60242;SHT30;46103;52.076;113.488;2023-05-29T19:09:26;8.54;49.02
60242;SHT30;46103;52.076;113.488;2023-05-29T19:12:32;8.46;49.16
60242;SHT30;46103;52.076;113.488;2023-05-29T19:15:39;8.45;49.08
60242;SHT30;46103;52.076;113.488;2023-05-29T19:18:44;8.45;49.10
60242;SHT30;46103;52.076;113.488;2023-05-29T19:21:53;8.40;49.16
60242;SHT30;46103;52.076;113.488;2023-05-29T19:25:00;8.29;49.44
60242;SHT30;46103;52.076;113.488;2023-05-29T19:28:05;8.18;49.81
60242;SHT30;46103;52.076;113.488;2023-05-29T19:31:15;8.11;49.60
60242;SHT30;46103;52.076;113.488;2023-05-29T19:34:25;7.97;49.99
60242;SHT30;46103;52.076;113.488;2023-05-29T19:37:31;7.95;49.37
60242;SHT30;46103;52.076;113.488;2023-05-29T19:40:38;7.88;49.59
60242;SHT30;46103;52.076;113.488;2023-05-29T19:43:44;7.87;49.90